< < Back
Terminal Aerodrome Forecast


Current Version              Previous Versions:   1  2  3  4  5  6  7  8  9  

Terminal Aerodrome Forecast

738
FTUS42 KMLB 240603 AAA
TAFDAB
TAF AMD
KDAB 240603Z 2406/2506 VRB02KT P6SM SKC
     FM241600 10008KT P6SM FEW045
     FM250100 15003KT P6SM SKC=

Latest METAR

758
SAUS80 KWBC 250000 RRB
MTRDAB
METAR KDAB 242353Z VRB04KT 10SM FEW030 FEW250 29/22 A3004 RMK AO2 SLP171
CB DSNT SW T02940222 10339 20294 51008 $


USA.gov is the U.S. government's official web portal to all federal, state and local government web resources and services.